Time;durP1;ratioP1;P1;durP2;ratioP2;P2;SDS_P1;SDS_P2;PMS_P1;PMS_P2;Temp;Humidity;BMP_temperature;BMP_pressure;BME280_temperature;BME280_humidity;BME280_pressure;Samples;Min_cycle;Max_cycle;Signal;HPM_P1;HPM_P2
2022/10/05 00:02:18;;;;;;;7.00;4.07;;;12.60;99.90;;;;;;5055837;28;20021;-76
2022/10/05 00:04:46;;;;;;;5.88;3.67;;;12.60;99.90;;;;;;5057119;28;20031;-76
2022/10/05 00:07:16;;;;;;;3.50;2.92;;;12.60;99.90;;;;;;5057019;28;20097;-76
2022/10/05 00:09:45;;;;;;;5.30;3.17;;;12.60;99.90;;;;;;5055843;28;20031;-76
2022/10/05 00:12:19;;;;;;;4.65;3.67;;;12.50;99.90;;;;;;5057180;28;20035;-76
2022/10/05 00:14:48;;;;;;;6.50;4.00;;;12.50;99.90;;;;;;5057354;28;20035;-76
2022/10/05 00:17:25;;;;;;;4.78;3.42;;;12.50;99.90;;;;;;5057042;28;20404;-76
2022/10/05 00:19:52;;;;;;;9.25;4.25;;;12.50;99.90;;;;;;5056717;28;20026;-76
2022/10/05 00:22:18;;;;;;;6.57;4.03;;;12.50;99.90;;;;;;5057168;28;20032;-76
2022/10/05 00:24:45;;;;;;;6.78;3.13;;;12.40;99.90;;;;;;5056832;28;20013;-76
2022/10/05 00:27:23;;;;;;;4.35;3.13;;;12.40;99.90;;;;;;5054881;28;20033;-76
2022/10/05 00:29:51;;;;;;;5.63;3.38;;;12.40;99.90;;;;;;5055672;28;20539;-75
2022/10/05 00:32:18;;;;;;;6.90;3.85;;;12.40;99.90;;;;;;5051964;28;20032;-76
2022/10/05 00:34:44;;;;;;;8.68;3.58;;;12.40;99.90;;;;;;5056771;28;20488;-76
2022/10/05 00:37:12;;;;;;;5.60;3.60;;;12.40;99.90;;;;;;5055212;28;20041;-76
2022/10/05 00:39:39;;;;;;;6.25;3.28;;;12.30;99.90;;;;;;5055593;28;20021;-76
2022/10/05 00:42:14;;;;;;;4.15;3.25;;;12.30;99.90;;;;;;5045550;28;20025;-76
2022/10/05 00:45:07;;;;;;;4.78;3.38;;;12.30;99.90;;;;;;5055467;28;20114;-76
2022/10/05 00:47:51;;;;;;;6.28;3.40;;;12.30;99.90;;;;;;5050457;28;20116;-76
2022/10/05 00:50:20;;;;;;;6.10;3.50;;;12.20;99.90;;;;;;5055101;28;20025;-76
2022/10/05 00:53:07;;;;;;;5.47;3.63;;;12.20;99.90;;;;;;5056699;28;20108;-76
2022/10/05 00:55:51;;;;;;;4.60;3.38;;;12.20;99.90;;;;;;5056526;28;20048;-76
2022/10/05 00:58:43;;;;;;;9.05;3.50;;;12.20;99.90;;;;;;5055600;28;20052;-76
2022/10/05 01:01:16;;;;;;;4.95;3.08;;;12.10;99.90;;;;;;5045107;28;20023;-76
2022/10/05 01:04:37;;;;;;;4.90;3.38;;;12.10;99.90;;;;;;5056475;28;20029;-76
2022/10/05 01:07:12;;;;;;;;;;;12.00;99.90;;;;;;5063389;28;20041;-76
2022/10/05 01:09:56;;;;;;;9.27;4.00;;;12.00;99.90;;;;;;5056880;28;20289;-76
2022/10/05 01:12:36;;;;;;;9.73;3.50;;;12.00;99.90;;;;;;5055269;28;20028;-75
2022/10/05 01:15:21;;;;;;;3.90;3.50;;;12.00;99.90;;;;;;5056610;28;20033;-75
2022/10/05 01:18:09;;;;;;;5.53;3.25;;;12.00;99.90;;;;;;5055125;28;20044;-76
2022/10/05 01:20:46;;;;;;;8.82;3.88;;;11.90;99.90;;;;;;5054924;28;20033;-76
2022/10/05 01:23:38;;;;;;;9.90;3.75;;;11.90;99.90;;;;;;5056573;28;20024;-76
2022/10/05 01:26:37;;;;;;;5.47;3.80;;;11.90;99.90;;;;;;5032975;28;20509;-75
2022/10/05 01:29:29;;;;;;;6.88;3.80;;;12.00;99.90;;;;;;5056654;28;20420;-76
2022/10/05 01:31:57;;;;;;;4.13;3.72;;;12.00;99.90;;;;;;5076242;28;20021;-76
2022/10/05 01:34:41;;;;;;;6.20;3.70;;;11.90;99.90;;;;;;5056031;28;20050;-76
2022/10/05 01:37:25;;;;;;;6.10;3.50;;;11.90;99.90;;;;;;5055933;28;20049;-76
2022/10/05 01:40:18;;;;;;;17.00;4.18;;;11.90;99.90;;;;;;5056226;28;20024;-76
2022/10/05 01:43:09;;;;;;;4.28;3.30;;;11.90;99.90;;;;;;5055176;28;20381;-76
2022/10/05 01:45:59;;;;;;;5.43;3.92;;;11.90;99.90;;;;;;5049014;28;20053;-76
2022/10/05 01:48:45;;;;;;;7.00;3.93;;;11.90;99.90;;;;;;5056056;28;20485;-76
2022/10/05 01:51:36;;;;;;;7.85;4.60;;;11.90;99.90;;;;;;5054372;28;20056;-76
2022/10/05 01:54:56;;;;;;;5.60;3.92;;;11.90;99.90;;;;;;5050409;28;20510;-76
2022/10/05 01:57:51;;;;;;;6.75;4.30;;;11.90;99.90;;;;;;4997956;28;20030;-76
2022/10/05 02:00:18;;;;;;;4.95;4.05;;;11.80;99.90;;;;;;4995666;28;20034;-76
2022/10/05 02:03:04;;;;;;;6.45;4.22;;;11.80;99.90;;;;;;5035124;28;20056;-76
2022/10/05 02:05:51;;;;;;;7.68;4.07;;;11.80;99.90;;;;;;5059359;28;20045;-76
2022/10/05 02:08:30;;;;;;;4.72;4.13;;;11.80;99.90;;;;;;5058275;28;20082;-75
2022/10/05 02:11:07;;;;;;;6.57;4.35;;;11.80;99.90;;;;;;5047873;28;20392;-76
2022/10/05 02:13:57;;;;;;;5.20;4.50;;;11.80;99.90;;;;;;5059269;28;20100;-75
2022/10/05 02:16:42;;;;;;;9.75;4.28;;;11.90;99.90;;;;;;5057929;28;20037;-76
2022/10/05 02:19:19;;;;;;;5.47;4.28;;;11.80;99.90;;;;;;5056598;28;20060;-76
2022/10/05 02:21:51;;;;;;;5.15;4.22;;;11.80;99.90;;;;;;5057501;28;20408;-75
2022/10/05 02:24:25;;;;;;;9.55;4.47;;;11.80;99.90;;;;;;5059273;28;20100;-76
2022/10/05 02:26:54;;;;;;;6.75;4.45;;;11.80;99.90;;;;;;5057811;28;20024;-76
2022/10/05 02:29:25;;;;;;;5.43;4.57;;;11.90;99.90;;;;;;5057794;28;20055;-76
2022/10/05 02:31:59;;;;;;;5.75;4.30;;;12.00;99.90;;;;;;5059013;28;20017;-75
2022/10/05 02:34:28;;;;;;;7.18;4.82;;;12.00;99.90;;;;;;5059064;28;20025;-75
2022/10/05 02:37:13;;;;;;;9.85;4.15;;;12.10;99.90;;;;;;5058927;28;20096;-75
2022/10/05 02:39:54;;;;;;;5.50;4.63;;;12.10;99.90;;;;;;5057560;28;20116;-76
2022/10/05 02:42:35;;;;;;;8.45;4.95;;;12.10;99.90;;;;;;5058964;28;20096;-75
2022/10/05 02:45:26;;;;;;;3.88;3.50;;;12.00;99.90;;;;;;5057392;28;20029;-75
2022/10/05 02:48:27;;;;;;;7.72;4.45;;;12.00;99.90;;;;;;5058579;28;20027;-76
2022/10/05 02:51:05;;;;;;;7.95;4.60;;;12.00;99.90;;;;;;5054303;28;20029;-75
2022/10/05 02:53:48;;;;;;;8.65;4.65;;;11.90;99.90;;;;;;5058481;28;20024;-75
2022/10/05 02:56:47;;;;;;;4.10;3.65;;;11.90;99.90;;;;;;5057248;28;20571;-75
2022/10/05 02:59:40;;;;;;;5.55;3.97;;;11.80;99.90;;;;;;5039362;28;20029;-75
2022/10/05 03:02:14;;;;;;;4.90;4.32;;;11.80;99.90;;;;;;5058021;28;20075;-75
2022/10/05 03:04:49;;;;;;;6.88;4.15;;;11.80;99.90;;;;;;5056928;28;20017;-75
2022/10/05 03:07:32;;;;;;;8.10;3.90;;;11.80;99.90;;;;;;5057079;28;20048;-75
2022/10/05 03:10:10;;;;;;;5.75;4.57;;;11.80;99.90;;;;;;5056976;28;20017;-75
2022/10/05 03:12:49;;;;;;;4.68;3.88;;;11.80;99.90;;;;;;5045253;28;20460;-75
2022/10/05 03:15:37;;;;;;;5.72;4.18;;;11.70;99.90;;;;;;5058309;28;20029;-75
2022/10/05 03:18:30;;;;;;;7.82;4.55;;;11.70;99.90;;;;;;5058109;28;20041;-75
2022/10/05 03:21:28;;;;;;;6.07;4.22;;;11.70;99.90;;;;;;5056408;28;20096;-75
2022/10/05 03:24:33;;;;;;;6.60;4.25;;;11.70;99.90;;;;;;5058105;28;20092;-75
2022/10/05 03:27:27;;;;;;;5.30;4.80;;;11.70;99.90;;;;;;5035401;28;20033;-75
2022/10/05 03:29:57;;;;;;;9.02;4.95;;;11.70;99.90;;;;;;5054193;28;20025;-75
2022/10/05 03:32:52;;;;;;;8.73;4.40;;;11.80;99.90;;;;;;5057582;28;20025;-75
2022/10/05 03:35:31;;;;;;;5.63;4.40;;;11.70;99.90;;;;;;5057547;28;20021;-75
2022/10/05 03:38:16;;;;;;;5.68;4.70;;;11.70;99.90;;;;;;5055444;28;20036;-75
2022/10/05 03:40:46;;;;;;;5.80;4.50;;;11.70;99.90;;;;;;5056484;28;20563;-75
2022/10/05 03:43:39;;;;;;;4.88;4.30;;;11.70;99.90;;;;;;5057706;28;20032;-75
2022/10/05 03:46:08;;;;;;;6.50;5.20;;;11.70;99.90;;;;;;5054302;28;20025;-75
2022/10/05 03:48:39;;;;;;;6.82;4.53;;;11.70;99.90;;;;;;5056239;28;20021;-75
2022/10/05 03:51:23;;;;;;;9.40;4.45;;;11.70;99.90;;;;;;5055754;28;20108;-75
2022/10/05 03:54:15;;;;;;;8.88;4.85;;;11.70;99.90;;;;;;5057946;28;20108;-75
2022/10/05 03:56:54;;;;;;;5.32;4.50;;;11.70;99.90;;;;;;5055944;28;20013;-75
2022/10/05 03:59:36;;;;;;;6.35;5.03;;;11.70;99.90;;;;;;5057440;28;20032;-75
2022/10/05 04:02:14;;;;;;;12.18;5.43;;;11.80;99.90;;;;;;5049940;28;20489;-75
2022/10/05 04:04:59;;;;;;;8.35;5.10;;;11.90;99.90;;;;;;5055676;28;20028;-75
2022/10/05 04:07:42;;;;;;;9.73;5.38;;;11.90;99.90;;;;;;5057265;28;20024;-75
2022/10/05 04:10:28;;;;;;;6.70;5.10;;;11.90;99.90;;;;;;5055782;28;20123;-75
2022/10/05 04:13:33;;;;;;;6.93;5.80;;;11.90;99.90;;;;;;5057333;28;20025;-75
2022/10/05 04:16:09;;;;;;;6.60;5.45;;;12.10;99.90;;;;;;5035222;28;20404;-75
2022/10/05 04:18:43;;;;;;;9.02;6.03;;;12.10;99.90;;;;;;5055609;28;20066;-75
2022/10/05 04:21:26;;;;;;;9.20;7.20;;;12.00;99.90;;;;;;5056991;28;20054;-75
2022/10/05 04:23:57;;;;;;;8.98;7.30;;;12.10;99.90;;;;;;5056731;28;20103;-75
2022/10/05 04:26:51;;;;;;;8.98;7.47;;;12.20;99.90;;;;;;5055623;28;20017;-75
2022/10/05 04:29:44;;;;;;;8.40;6.80;;;12.20;99.90;;;;;;5047042;28;20041;-75
2022/10/05 04:32:51;;;;;;;8.35;6.00;;;12.20;99.90;;;;;;5055412;28;20021;-75
2022/10/05 04:35:23;;;;;;;10.50;6.53;;;12.20;99.90;;;;;;4994649;28;20037;-75
2022/10/05 04:38:23;;;;;;;8.80;6.00;;;12.20;99.90;;;;;;5055164;28;20440;-75
2022/10/05 04:41:00;;;;;;;10.90;6.33;;;12.20;99.90;;;;;;5056886;28;20053;-75
2022/10/05 04:43:46;;;;;;;12.52;7.10;;;12.20;99.90;;;;;;5056858;28;20025;-75
2022/10/05 04:46:29;;;;;;;13.70;7.78;;;12.20;99.90;;;;;;5055062;28;20052;-75
2022/10/05 04:49:22;;;;;;;10.68;7.82;;;12.30;99.90;;;;;;5055458;28;20029;-75
2022/10/05 04:51:54;;;;;;;20.90;9.07;;;12.40;99.90;;;;;;5055578;28;20017;-75
2022/10/05 04:54:52;;;;;;;13.55;8.57;;;12.40;99.90;;;;;;5056557;28;20021;-75
2022/10/05 04:57:27;;;;;;;14.00;8.60;;;12.60;99.90;;;;;;5055205;28;20424;-75
2022/10/05 04:59:59;;;;;;;12.10;9.07;;;12.60;99.90;;;;;;5045785;28;20021;-75
2022/10/05 05:03:03;;;;;;;11.13;8.82;;;12.70;99.90;;;;;;5056371;28;20037;-75
2022/10/05 05:05:44;;;;;;;15.20;10.18;;;12.70;99.90;;;;;;5051728;28;20094;-75
2022/10/05 05:08:47;;;;;;;17.83;11.50;;;12.80;99.90;;;;;;5055208;28;20048;-74
2022/10/05 05:11:35;;;;;;;17.35;10.73;;;12.90;99.90;;;;;;5055000;28;20037;-75
2022/10/05 05:14:01;;;;;;;15.93;10.88;;;13.00;99.90;;;;;;5055296;28;20025;-75
2022/10/05 05:16:34;;;;;;;17.30;11.18;;;13.10;99.90;;;;;;5054850;28;20037;-74
2022/10/05 05:19:21;;;;;;;21.25;12.63;;;13.20;99.90;;;;;;5046421;28;20013;-74
2022/10/05 05:22:27;;;;;;;17.85;12.68;;;13.20;99.90;;;;;;5054947;28;20024;-75
2022/10/05 05:25:26;;;;;;;18.90;13.00;;;13.40;99.90;;;;;;5025971;28;20095;-75
2022/10/05 05:27:55;;;;;;;16.67;12.52;;;13.40;99.90;;;;;;5017376;28;20095;-74
2022/10/05 05:30:24;;;;;;;17.63;12.35;;;13.50;99.90;;;;;;5055514;28;20013;-77
2022/10/05 05:33:04;;;;;;;24.27;13.82;;;13.60;99.90;;;;;;5056127;28;20014;-75
2022/10/05 05:36:20;;;;;;;22.83;15.80;;;13.60;99.90;;;;;;5056249;28;20072;-76
2022/10/05 05:38:59;;;;;;;20.05;13.82;;;13.70;99.90;;;;;;5050301;28;20078;-75
2022/10/05 05:41:38;;;;;;;19.85;13.88;;;13.70;99.90;;;;;;5092451;28;20035;-75
2022/10/05 05:44:20;;;;;;;21.33;15.20;;;13.70;99.90;;;;;;5059865;28;20021;-75
2022/10/05 05:47:01;;;;;;;20.75;14.32;;;13.80;99.90;;;;;;5058655;28;20032;-76
2022/10/05 05:50:15;;;;;;;19.30;13.30;;;13.70;99.90;;;;;;5055357;28;20486;-76
2022/10/05 05:52:48;;;;;;;19.27;13.27;;;13.80;99.90;;;;;;5053000;28;20029;-78
2022/10/05 05:55:40;;;;;;;15.43;13.02;;;14.00;99.90;;;;;;5059804;28;20393;-77
2022/10/05 05:58:28;;;;;;;17.65;12.30;;;14.10;99.90;;;;;;5047959;28;20115;-76
2022/10/05 06:01:03;;;;;;;17.08;12.25;;;14.10;99.90;;;;;;5057696;28;20032;-77
2022/10/05 06:03:49;;;;;;;15.55;12.65;;;14.10;99.90;;;;;;5059515;28;20027;-76
2022/10/05 06:06:16;;;;;;;16.85;12.35;;;14.10;99.90;;;;;;5057972;28;20053;-76
2022/10/05 06:09:02;;;;;;;15.95;12.23;;;14.20;99.90;;;;;;5058089;28;20021;-76
2022/10/05 06:11:36;;;;;;;17.50;12.32;;;14.20;99.90;;;;;;5058261;28;20017;-76
2022/10/05 06:14:16;;;;;;;16.88;12.32;;;14.20;99.90;;;;;;5059414;28;20025;-75
2022/10/05 06:16:51;;;;;;;12.73;11.43;;;14.20;99.90;;;;;;5052481;28;20490;-76
2022/10/05 06:19:21;;;;;;;14.10;11.48;;;14.20;99.90;;;;;;5058464;28;20083;-76
2022/10/05 06:21:53;;;;;;;12.38;10.70;;;14.20;99.90;;;;;;5055082;28;20009;-76
2022/10/05 06:24:51;;;;;;;11.77;10.23;;;14.30;99.90;;;;;;5059221;28;20085;-77
2022/10/05 06:27:34;;;;;;;23.35;11.25;;;14.30;99.90;;;;;;5048619;28;20071;-76
2022/10/05 06:30:07;;;;;;;13.68;10.18;;;14.40;99.90;;;;;;5057734;28;20035;-77
2022/10/05 06:32:50;;;;;;;9.73;8.73;;;14.50;99.90;;;;;;5059217;28;20025;-77
2022/10/05 06:35:28;;;;;;;12.70;9.73;;;14.50;99.90;;;;;;5058357;28;20570;-77
2022/10/05 06:38:15;;;;;;;10.85;9.45;;;14.60;99.90;;;;;;5057995;28;20013;-77
2022/10/05 06:41:04;;;;;;;17.30;8.60;;;14.60;99.90;;;;;;5058924;28;20024;-76
2022/10/05 06:44:08;;;;;;;12.27;9.13;;;14.70;99.90;;;;;;5058843;28;20028;-76
2022/10/05 06:46:48;;;;;;;9.77;8.77;;;14.80;99.90;;;;;;5057002;28;20032;-76
2022/10/05 06:49:23;;;;;;;9.85;8.40;;;14.80;99.90;;;;;;5057462;28;20021;-76
2022/10/05 06:51:51;;;;;;;10.52;7.82;;;14.90;99.90;;;;;;5048056;28;20025;-76
2022/10/05 06:54:36;;;;;;;12.48;7.57;;;14.90;99.90;;;;;;5057529;28;20037;-76
2022/10/05 06:57:24;;;;;;;9.75;7.35;;;15.00;99.90;;;;;;5050698;28;20021;-76
2022/10/05 07:00:13;;;;;;;9.45;8.45;;;15.10;99.90;;;;;;5055134;28;20098;-76
2022/10/05 07:02:54;;;;;;;8.68;7.65;;;15.10;99.90;;;;;;5044056;28;20029;-78
2022/10/05 07:05:26;;;;;;;10.10;7.97;;;15.20;99.90;;;;;;5058283;28;20455;-77
2022/10/05 07:07:56;;;;;;;6.47;5.88;;;15.30;99.90;;;;;;5058752;28;20025;-79
2022/10/05 07:10:53;;;;;;;7.80;7.05;;;15.30;99.90;;;;;;5056946;28;20025;-76
2022/10/05 07:13:30;;;;;;;8.43;6.97;;;15.40;99.90;;;;;;5057024;28;20029;-77
2022/10/05 07:16:18;;;;;;;10.07;6.45;;;15.50;99.90;;;;;;5056896;28;20059;-77
2022/10/05 07:19:21;;;;;;;9.10;7.15;;;15.60;99.90;;;;;;5056723;28;20032;-77
2022/10/05 07:22:06;;;;;;;6.47;5.80;;;15.70;99.90;;;;;;5057826;28;20048;-78
2022/10/05 07:24:33;;;;;;;9.10;6.32;;;15.80;99.90;;;;;;5058126;28;20021;-76
2022/10/05 07:27:11;;;;;;;7.05;6.30;;;15.90;99.90;;;;;;5056862;28;20435;-78
2022/10/05 07:29:40;;;;;;;7.90;5.80;;;16.10;99.90;;;;;;5055320;28;20021;-76
2022/10/05 07:32:09;;;;;;;7.35;5.45;;;16.20;99.90;;;;;;5057975;28;20499;-76
2022/10/05 07:35:06;;;;;;;10.30;5.50;;;16.30;99.90;;;;;;5056189;28;20055;-76
2022/10/05 07:37:56;;;;;;;7.45;6.18;;;16.40;99.90;;;;;;5049203;28;20053;-77
2022/10/05 07:41:01;;;;;;;8.13;5.68;;;16.40;99.90;;;;;;5058039;28;20101;-76
2022/10/05 07:43:31;;;;;;;6.53;5.82;;;16.60;99.90;;;;;;5044655;28;20443;-77
2022/10/05 07:46:16;;;;;;;7.35;5.53;;;16.70;99.90;;;;;;5057600;28;20401;-77
2022/10/05 07:48:54;;;;;;;9.93;5.55;;;16.70;99.90;;;;;;5057879;28;20075;-77
2022/10/05 07:51:44;;;;;;;6.55;4.70;;;16.90;99.90;;;;;;5057334;28;20032;-78
2022/10/05 07:54:24;;;;;;;7.85;4.75;;;17.00;99.90;;;;;;5072970;28;20029;-77
2022/10/05 07:57:09;;;;;;;7.35;4.72;;;17.10;99.90;;;;;;5056087;28;20036;-77
2022/10/05 07:59:40;;;;;;;8.13;4.03;;;17.20;99.90;;;;;;5055727;28;20033;-77
2022/10/05 08:02:33;;;;;;;9.02;4.80;;;17.20;99.90;;;;;;5056491;28;20032;-77
2022/10/05 08:05:10;;;;;;;6.70;4.35;;;17.30;99.90;;;;;;5056690;28;20101;-76
2022/10/05 08:07:36;;;;;;;10.57;4.18;;;17.40;99.90;;;;;;5055965;28;20039;-78
2022/10/05 08:10:41;;;;;;;10.80;4.80;;;17.50;99.90;;;;;;5057348;28;20017;-77
2022/10/05 08:13:29;;;;;;;6.47;4.47;;;17.60;99.90;;;;;;5057352;28;20029;-77
2022/10/05 08:16:01;;;;;;;7.63;4.07;;;17.80;99.90;;;;;;5044338;28;20021;-78
2022/10/05 08:18:40;;;;;;;5.57;4.63;;;17.80;99.90;;;;;;5056862;28;20034;-78
2022/10/05 08:21:10;;;;;;;5.28;3.97;;;17.90;99.90;;;;;;5055933;28;20021;-77
2022/10/05 08:23:44;;;;;;;;;;;18.00;99.90;;;;;;5056409;28;20053;-77
2022/10/05 08:26:22;;;;;;;6.80;4.03;;;18.00;99.90;;;;;;5057111;28;20396;-77
2022/10/05 08:29:06;;;;;;;7.00;4.10;;;18.10;99.90;;;;;;5057102;28;20017;-78
2022/10/05 08:31:38;;;;;;;6.35;4.68;;;18.10;99.90;;;;;;5055544;28;20055;-76
2022/10/05 08:34:29;;;;;;;5.72;3.63;;;18.20;99.90;;;;;;5056890;28;20488;-76
2022/10/05 08:37:12;;;;;;;12.90;4.57;;;18.30;99.90;;;;;;5057056;28;20405;-78
2022/10/05 08:39:53;;;;;;;7.22;3.70;;;18.50;99.90;;;;;;5052332;28;20025;-77
2022/10/05 08:42:51;;;;;;;6.53;3.85;;;18.60;99.90;;;;;;5056930;28;20025;-77
2022/10/05 08:45:48;;;;;;;6.53;4.03;;;18.70;99.90;;;;;;5056966;28;20017;-77
2022/10/05 08:48:50;;;;;;;6.40;3.75;;;18.70;99.90;;;;;;5042368;28;20064;-77
2022/10/05 08:51:18;;;;;;;3.80;3.17;;;18.70;99.90;;;;;;5056393;28;20017;-77
2022/10/05 08:54:08;;;;;;;5.53;3.50;;;18.80;99.90;;;;;;5055771;28;20063;-78
2022/10/05 08:56:40;;;;;;;7.47;3.60;;;18.80;99.90;;;;;;5055465;28;20025;-78
2022/10/05 08:59:41;;;;;;;9.60;4.35;;;18.90;99.90;;;;;;5056697;28;20116;-77
2022/10/05 09:03:00;;;;;;;7.53;4.28;;;18.90;99.90;;;;;;5049786;28;20028;-77
2022/10/05 09:05:46;;;;;;;10.05;2.72;;;19.10;99.90;;;;;;4989874;28;20054;-76
2022/10/05 09:08:31;;;;;;;7.78;3.47;;;19.10;99.90;;;;;;4978810;28;20029;-76
2022/10/05 09:11:08;;;;;;;7.28;3.20;;;19.20;99.90;;;;;;5044434;28;20087;-75
2022/10/05 09:13:57;;;;;;;6.20;2.90;;;19.30;99.90;;;;;;5060426;28;20017;-75
2022/10/05 09:16:42;;;;;;;6.38;3.20;;;19.50;99.90;;;;;;5059381;28;20028;-75
2022/10/05 09:19:21;;;;;;;8.00;2.90;;;19.60;99.90;;;;;;5054336;28;20100;-75
2022/10/05 09:21:57;;;;;;;5.57;2.40;;;19.60;99.90;;;;;;5060553;28;20035;-75
2022/10/05 09:24:41;;;;;;;6.35;3.25;;;19.60;99.90;;;;;;5060442;28;20477;-75
2022/10/05 09:27:16;;;;;;;6.25;3.22;;;19.60;99.90;;;;;;5056634;28;20031;-75
2022/10/05 09:30:00;;;;;;;7.10;2.80;;;19.70;99.90;;;;;;5060199;28;20024;-74
2022/10/05 09:32:38;;;;;;;13.88;2.70;;;19.70;99.90;;;;;;5058860;28;20033;-75
2022/10/05 09:35:47;;;;;;;6.72;3.35;;;19.80;99.90;;;;;;5058517;28;20087;-75
2022/10/05 09:38:16;;;;;;;6.63;2.83;;;19.90;99.90;;;;;;5059959;28;20048;-76
2022/10/05 09:41:01;;;;;;;6.70;2.80;;;20.00;99.90;;;;;;5060355;28;20072;-74
2022/10/05 09:43:43;;;;;;;8.07;2.50;;;20.00;99.90;;;;;;5059834;28;20075;-77
2022/10/05 09:46:56;;;;;;;5.93;3.40;;;20.10;99.90;;;;;;5058441;28;20025;-75
2022/10/05 09:49:40;;;;;;;7.60;2.63;;;20.20;99.90;;;;;;5083208;28;20029;-76
2022/10/05 09:52:38;;;;;;;8.75;2.75;;;20.20;99.90;;;;;;5059749;28;20017;-76
2022/10/05 09:55:38;;;;;;;9.65;3.35;;;20.20;99.90;;;;;;5059907;28;20021;-75
2022/10/05 09:58:27;;;;;;;6.70;3.33;;;20.30;99.90;;;;;;5059724;28;20028;-75
2022/10/05 10:00:58;;;;;;;4.38;3.47;;;20.50;99.90;;;;;;5056588;28;20024;-76
2022/10/05 10:04:09;;;;;;;10.40;3.53;;;20.50;99.90;;;;;;5059545;28;20025;-74
2022/10/05 10:06:58;;;;;;;4.28;2.88;;;20.50;99.90;;;;;;5041657;28;20045;-75
2022/10/05 10:09:33;;;;;;;4.63;2.63;;;20.50;99.90;;;;;;5047376;28;20055;-75
2022/10/05 10:12:18;;;;;;;7.15;2.88;;;20.60;99.90;;;;;;5059519;28;20025;-76
2022/10/05 10:15:15;;;;;;;8.85;3.25;;;20.60;99.90;;;;;;5059946;28;20021;-76
2022/10/05 10:18:10;;;;;;;5.07;2.80;;;20.60;99.90;;;;;;5058289;28;20096;-76
2022/10/05 10:20:48;;;;;;;8.70;2.80;;;20.60;99.90;;;;;;5058197;28;20021;-75
2022/10/05 10:23:28;;;;;;;9.35;3.08;;;20.60;99.90;;;;;;5059248;28;20080;-76
2022/10/05 10:26:15;;;;;;;6.97;2.83;;;20.60;99.90;;;;;;5057882;28;20023;-76
2022/10/05 10:29:04;;;;;;;11.35;2.95;;;20.60;99.90;;;;;;5059258;28;20263;-76
2022/10/05 10:32:05;;;;;;;9.02;2.75;;;20.70;99.90;;;;;;5054082;28;20016;-75
2022/10/05 10:34:57;;;;;;;8.32;2.80;;;20.70;99.90;;;;;;5058937;28;20028;-75
2022/10/05 10:37:38;;;;;;;10.10;2.38;;;20.70;99.90;;;;;;5058874;28;20080;-76
2022/10/05 10:40:34;;;;;;;10.60;2.72;;;20.80;99.90;;;;;;5057911;28;20052;-76
2022/10/05 10:43:30;;;;;;;6.25;2.58;;;20.70;99.90;;;;;;5056077;28;20428;-75
2022/10/05 10:46:25;;;;;;;3.80;2.65;;;20.80;99.90;;;;;;5057427;28;20486;-77
2022/10/05 10:48:56;;;;;;;7.55;2.72;;;20.90;99.90;;;;;;5057760;28;20028;-75
2022/10/05 10:51:58;;;;;;;7.72;3.08;;;20.90;99.90;;;;;;5056238;28;20032;-75
2022/10/05 10:54:48;;;;;;;7.47;2.30;;;20.90;99.90;;;;;;5058760;28;20020;-75
2022/10/05 10:57:38;;;;;;;6.43;2.85;;;20.90;99.90;;;;;;5057249;28;20032;-75
2022/10/05 11:00:32;;;;;;;8.77;2.75;;;20.90;99.90;;;;;;5047667;28;20043;-75
2022/10/05 11:03:22;;;;;;;5.68;2.42;;;21.00;99.90;;;;;;5058522;28;20456;-75
2022/10/05 11:06:11;;;;;;;9.85;2.88;;;21.00;99.90;;;;;;5056964;28;20029;-75
2022/10/05 11:08:56;;;;;;;5.20;2.53;;;21.10;99.90;;;;;;5052369;28;20494;-75
2022/10/05 11:11:30;;;;;;;5.85;2.35;;;21.10;99.90;;;;;;5057076;28;20048;-76
2022/10/05 11:14:31;;;;;;;5.57;3.00;;;21.10;99.90;;;;;;5058465;28;20025;-74
2022/10/05 11:17:03;;;;;;;5.45;2.50;;;21.20;99.90;;;;;;5050706;28;20124;-75
2022/10/05 11:19:48;;;;;;;7.13;2.67;;;21.30;99.90;;;;;;5090393;28;20029;-75
2022/10/05 11:22:40;;;;;;;7.97;2.70;;;21.50;99.90;;;;;;5058486;28;20025;-75
2022/10/05 11:25:28;;;;;;;6.05;2.40;;;21.50;99.90;;;;;;5057988;28;20017;-75
2022/10/05 11:28:13;;;;;;;7.50;2.58;;;21.50;99.90;;;;;;5058339;28;20473;-75
2022/10/05 11:30:58;;;;;;;4.18;2.33;;;21.50;99.90;;;;;;5058275;28;20021;-76
2022/10/05 11:34:06;;;;;;;5.80;2.40;;;21.50;99.90;;;;;;5057742;28;20090;-76
2022/10/05 11:36:57;;;;;;;6.20;2.58;;;21.50;99.90;;;;;;5057477;28;20044;-76
2022/10/05 11:39:27;;;;;;;7.45;3.17;;;21.50;99.90;;;;;;5070666;28;20037;-76
2022/10/05 11:41:53;;;;;;;8.93;2.35;;;21.60;99.90;;;;;;5057871;28;20489;-77
2022/10/05 11:44:58;;;;;;;5.13;2.30;;;21.60;99.90;;;;;;5056691;28;20085;-75
2022/10/05 11:47:36;;;;;;;7.00;2.80;;;21.60;99.90;;;;;;5059317;28;20115;-76
2022/10/05 11:50:39;;;;;;;7.38;2.80;;;21.60;99.90;;;;;;5057555;28;20107;-76
2022/10/05 11:53:12;;;;;;;7.80;2.40;;;21.60;99.90;;;;;;5078273;28;20029;-76
2022/10/05 11:56:03;;;;;;;8.23;2.42;;;21.70;99.90;;;;;;5057563;28;20089;-75
2022/10/05 11:58:36;;;;;;;11.45;2.85;;;21.70;99.90;;;;;;5057746;28;20074;-76
2022/10/05 12:01:21;;;;;;;7.40;2.45;;;21.70;99.90;;;;;;5054998;28;20029;-76
2022/10/05 12:03:54;;;;;;;4.15;1.85;;;21.80;99.90;;;;;;5057385;28;20424;-76
2022/10/05 12:06:42;;;;;;;7.95;3.05;;;22.00;99.90;;;;;;5055955;28;20116;-76
2022/10/05 12:09:35;;;;;;;7.22;2.80;;;22.00;99.90;;;;;;5056070;28;20017;-76
2022/10/05 12:12:04;;;;;;;8.00;2.60;;;22.10;99.90;;;;;;5050295;28;20029;-76
2022/10/05 12:14:40;;;;;;;7.93;2.83;;;22.20;99.90;;;;;;5056065;28;20071;-76
2022/10/05 12:17:25;;;;;;;12.40;3.05;;;22.00;99.90;;;;;;5055740;28;20048;-76
2022/10/05 12:19:56;;;;;;;5.13;2.10;;;22.10;99.90;;;;;;5056745;28;20029;-76
2022/10/05 12:22:33;;;;;;;8.13;1.90;;;22.20;99.90;;;;;;5057616;28;20021;-76
2022/10/05 12:25:33;;;;;;;8.20;2.40;;;22.20;99.90;;;;;;5057164;28;20025;-76
2022/10/05 12:28:04;;;;;;;5.93;2.92;;;22.20;99.90;;;;;;5057029;28;20028;-75
2022/10/05 12:30:57;;;;;;;8.40;2.53;;;22.20;99.90;;;;;;5043674;28;20078;-76
2022/10/05 12:33:32;;;;;;;5.47;1.95;;;22.30;99.90;;;;;;5056745;28;20028;-77
2022/10/05 12:36:20;;;;;;;6.28;2.03;;;22.30;99.90;;;;;;5056652;28;20048;-75
2022/10/05 12:39:11;;;;;;;5.90;2.30;;;22.30;99.90;;;;;;5056939;28;20032;-77
2022/10/05 12:41:50;;;;;;;6.88;2.63;;;22.30;99.90;;;;;;5055759;28;20028;-75
2022/10/05 12:44:23;;;;;;;4.90;2.30;;;22.40;99.90;;;;;;5049728;28;20032;-76
2022/10/05 12:47:18;;;;;;;5.50;2.00;;;22.40;99.90;;;;;;5057033;28;20028;-77
2022/10/05 12:50:10;;;;;;;16.52;3.13;;;22.40;99.90;;;;;;5055836;28;20056;-76
2022/10/05 12:52:54;;;;;;;3.35;1.88;;;22.40;99.90;;;;;;5055446;28;20025;-76
2022/10/05 12:55:42;;;;;;;3.55;2.05;;;22.50;99.90;;;;;;5056857;28;20025;-76
2022/10/05 12:58:27;;;;;;;7.93;2.58;;;22.50;99.90;;;;;;5056709;28;20120;-76
2022/10/05 13:01:07;;;;;;;5.47;1.80;;;22.60;99.90;;;;;;5056687;28;20023;-76
2022/10/05 13:03:54;;;;;;;9.40;2.97;;;22.60;99.90;;;;;;5055507;28;20056;-76
2022/10/05 13:06:45;;;;;;;5.28;2.28;;;22.70;99.90;;;;;;5044311;28;20024;-75
2022/10/05 13:09:27;;;;;;;7.88;1.92;;;22.70;99.90;;;;;;5056486;28;20017;-75
2022/10/05 13:11:59;;;;;;;8.32;1.98;;;22.80;99.90;;;;;;5055568;28;20025;-75
2022/10/05 13:14:43;;;;;;;4.28;1.50;;;22.80;99.90;;;;;;5056567;28;20028;-75
2022/10/05 13:17:25;;;;;;;4.90;1.73;;;22.90;99.90;;;;;;5056403;28;20021;-75
2022/10/05 13:19:57;;;;;;;11.52;1.98;;;23.00;99.90;;;;;;5056345;28;20016;-76
2022/10/05 13:22:38;;;;;;;5.70;1.92;;;23.00;99.90;;;;;;5056492;28;20025;-76
2022/10/05 13:25:18;;;;;;;4.97;1.50;;;22.90;99.90;;;;;;5052798;28;20075;-76
2022/10/05 13:27:46;;;;;;;4.70;2.08;;;22.90;99.90;;;;;;5056678;28;20028;-76
2022/10/05 13:30:16;;;;;;;5.25;2.15;;;22.90;99.90;;;;;;5055087;28;20037;-77
2022/10/05 13:32:58;;;;;;;3.88;1.77;;;23.00;99.90;;;;;;5056388;28;20507;-76
2022/10/05 13:35:45;;;;;;;7.65;1.67;;;23.00;99.90;;;;;;5056106;28;20044;-77
2022/10/05 13:38:22;;;;;;;5.68;1.80;;;23.00;99.90;;;;;;5055018;28;20017;-76
2022/10/05 13:41:10;;;;;;;5.97;1.40;;;23.00;99.90;;;;;;5056571;28;20096;-77
2022/10/05 13:44:13;;;;;;;6.97;1.20;;;23.10;99.90;;;;;;5057102;28;20017;-76
2022/10/05 13:46:53;;;;;;;4.65;1.63;;;23.10;99.90;;;;;;5085999;28;20021;-75
2022/10/05 13:49:40;;;;;;;3.33;1.55;;;23.20;99.90;;;;;;5054861;28;20025;-77
2022/10/05 13:52:29;;;;;;;6.68;1.70;;;23.30;99.90;;;;;;5046839;28;20090;-76
2022/10/05 13:55:04;;;;;;;8.82;1.70;;;23.20;99.90;;;;;;5054888;28;20025;-77
2022/10/05 13:58:01;;;;;;;6.72;2.15;;;23.20;99.90;;;;;;5058877;28;20025;-76
2022/10/05 14:00:28;;;;;;;5.55;1.58;;;23.20;99.90;;;;;;5058931;28;20021;-76
2022/10/05 14:02:56;;;;;;;4.32;1.63;;;23.20;99.90;;;;;;5058463;28;20035;-77
2022/10/05 14:05:25;;;;;;;4.55;1.60;;;23.10;99.90;;;;;;5058200;28;20021;-77
2022/10/05 14:08:02;;;;;;;6.00;1.88;;;23.10;99.90;;;;;;5059813;28;20111;-76